sensor_id;sensor_type;location;lat;lon;timestamp;temperature;humidity
16229;DHT22;8222;51.462;12.630;2022-12-24T00:01:20;11.70;99.90
16229;DHT22;8222;51.462;12.630;2022-12-24T00:03:45;11.50;99.90
16229;DHT22;8222;51.462;12.630;2022-12-24T00:06:22;11.70;99.90
16229;DHT22;8222;51.462;12.630;2022-12-24T00:08:48;11.80;99.90
16229;DHT22;8222;51.462;12.630;2022-12-24T00:11:16;11.70;99.90
16229;DHT22;8222;51.462;12.630;2022-12-24T00:13:42;11.70;99.90
16229;DHT22;8222;51.462;12.630;2022-12-24T00:16:10;11.80;99.90
16229;DHT22;8222;51.462;12.630;2022-12-24T00:18:35;11.80;99.90
16229;DHT22;8222;51.462;12.630;2022-12-24T00:21:01;11.70;99.90
16229;DHT22;8222;51.462;12.630;2022-12-24T00:23:28;11.60;99.90
16229;DHT22;8222;51.462;12.630;2022-12-24T00:25:54;11.70;99.90
16229;DHT22;8222;51.462;12.630;2022-12-24T00:28:20;11.60;99.90
16229;DHT22;8222;51.462;12.630;2022-12-24T00:30:46;11.60;99.90
16229;DHT22;8222;51.462;12.630;2022-12-24T00:33:12;11.80;99.90
16229;DHT22;8222;51.462;12.630;2022-12-24T00:35:38;11.80;99.90
16229;DHT22;8222;51.462;12.630;2022-12-24T00:38:04;11.80;99.90
16229;DHT22;8222;51.462;12.630;2022-12-24T00:40:30;11.70;99.90
16229;DHT22;8222;51.462;12.630;2022-12-24T00:42:57;11.60;99.90
16229;DHT22;8222;51.462;12.630;2022-12-24T00:45:23;11.50;99.90
16229;DHT22;8222;51.462;12.630;2022-12-24T00:47:48;11.60;99.90
16229;DHT22;8222;51.462;12.630;2022-12-24T00:50:14;11.80;99.90
16229;DHT22;8222;51.462;12.630;2022-12-24T00:52:40;11.70;99.90
16229;DHT22;8222;51.462;12.630;2022-12-24T00:55:06;11.70;99.90
16229;DHT22;8222;51.462;12.630;2022-12-24T00:57:33;11.70;99.90
16229;DHT22;8222;51.462;12.630;2022-12-24T00:59:59;11.90;99.90
16229;DHT22;8222;51.462;12.630;2022-12-24T01:02:25;11.90;99.90
16229;DHT22;8222;51.462;12.630;2022-12-24T01:04:51;11.80;99.90
16229;DHT22;8222;51.462;12.630;2022-12-24T01:07:35;11.80;99.90
16229;DHT22;8222;51.462;12.630;2022-12-24T01:10:02;11.80;99.90
16229;DHT22;8222;51.462;12.630;2022-12-24T01:12:28;11.80;99.90
16229;DHT22;8222;51.462;12.630;2022-12-24T01:14:54;11.80;99.90
16229;DHT22;8222;51.462;12.630;2022-12-24T01:17:19;11.80;99.90
16229;DHT22;8222;51.462;12.630;2022-12-24T01:19:45;11.90;99.90
16229;DHT22;8222;51.462;12.630;2022-12-24T01:22:10;12.40;99.90
16229;DHT22;8222;51.462;12.630;2022-12-24T01:24:39;11.10;99.90
16229;DHT22;8222;51.462;12.630;2022-12-24T01:27:05;11.80;99.90
16229;DHT22;8222;51.462;12.630;2022-12-24T01:29:31;11.80;99.90
16229;DHT22;8222;51.462;12.630;2022-12-24T01:31:56;11.90;99.90
16229;DHT22;8222;51.462;12.630;2022-12-24T01:34:22;11.70;99.90
16229;DHT22;8222;51.462;12.630;2022-12-24T01:36:47;11.70;99.90
16229;DHT22;8222;51.462;12.630;2022-12-24T01:39:13;11.70;99.90
16229;DHT22;8222;51.462;12.630;2022-12-24T01:41:39;11.80;99.90
16229;DHT22;8222;51.462;12.630;2022-12-24T01:44:34;11.80;99.90
16229;DHT22;8222;51.462;12.630;2022-12-24T01:47:14;12.50;99.90
16229;DHT22;8222;51.462;12.630;2022-12-24T01:50:03;11.70;99.90
16229;DHT22;8222;51.462;12.630;2022-12-24T01:52:35;11.80;99.90
16229;DHT22;8222;51.462;12.630;2022-12-24T01:57:48;11.70;99.90
16229;DHT22;8222;51.462;12.630;2022-12-24T02:00:15;11.80;99.90
16229;DHT22;8222;51.462;12.630;2022-12-24T02:02:43;11.70;99.90
16229;DHT22;8222;51.462;12.630;2022-12-24T02:07:59;11.80;99.90
16229;DHT22;8222;51.462;12.630;2022-12-24T02:10:28;12.50;99.90
16229;DHT22;8222;51.462;12.630;2022-12-24T02:12:54;11.70;99.90
16229;DHT22;8222;51.462;12.630;2022-12-24T02:15:21;11.80;99.90
16229;DHT22;8222;51.462;12.630;2022-12-24T02:18:10;11.90;99.90
16229;DHT22;8222;51.462;12.630;2022-12-24T02:29:21;11.80;99.90
16229;DHT22;8222;51.462;12.630;2022-12-24T02:32:00;12.00;99.90
16229;DHT22;8222;51.462;12.630;2022-12-24T02:34:35;12.10;99.90
16229;DHT22;8222;51.462;12.630;2022-12-24T02:37:15;12.10;99.90
16229;DHT22;8222;51.462;12.630;2022-12-24T02:40:25;12.00;99.90
16229;DHT22;8222;51.462;12.630;2022-12-24T02:42:48;12.00;99.90
16229;DHT22;8222;51.462;12.630;2022-12-24T02:45:21;11.90;99.90
16229;DHT22;8222;51.462;12.630;2022-12-24T02:47:51;12.00;99.90
16229;DHT22;8222;51.462;12.630;2022-12-24T02:50:19;12.10;99.90
16229;DHT22;8222;51.462;12.630;2022-12-24T02:52:46;12.00;99.90
16229;DHT22;8222;51.462;12.630;2022-12-24T02:55:22;11.90;99.90
16229;DHT22;8222;51.462;12.630;2022-12-24T03:06:38;12.10;99.90
16229;DHT22;8222;51.462;12.630;2022-12-24T03:09:20;12.10;99.90
16229;DHT22;8222;51.462;12.630;2022-12-24T03:11:56;12.00;99.90
16229;DHT22;8222;51.462;12.630;2022-12-24T03:14:25;12.10;99.90
16229;DHT22;8222;51.462;12.630;2022-12-24T03:16:51;12.00;99.90
16229;DHT22;8222;51.462;12.630;2022-12-24T03:19:17;12.00;99.90
16229;DHT22;8222;51.462;12.630;2022-12-24T03:21:43;12.00;99.90
16229;DHT22;8222;51.462;12.630;2022-12-24T03:24:10;11.90;99.90
16229;DHT22;8222;51.462;12.630;2022-12-24T03:26:37;11.80;99.90
16229;DHT22;8222;51.462;12.630;2022-12-24T03:29:05;11.80;99.90
16229;DHT22;8222;51.462;12.630;2022-12-24T03:31:45;11.80;99.90
16229;DHT22;8222;51.462;12.630;2022-12-24T03:34:12;11.90;99.90
16229;DHT22;8222;51.462;12.630;2022-12-24T03:36:38;11.80;99.90
16229;DHT22;8222;51.462;12.630;2022-12-24T03:39:05;11.80;99.90
16229;DHT22;8222;51.462;12.630;2022-12-24T03:41:31;12.50;99.90
16229;DHT22;8222;51.462;12.630;2022-12-24T03:43:56;11.80;99.90
16229;DHT22;8222;51.462;12.630;2022-12-24T03:46:24;11.80;99.90
16229;DHT22;8222;51.462;12.630;2022-12-24T03:48:49;11.80;99.90
16229;DHT22;8222;51.462;12.630;2022-12-24T03:51:17;11.80;99.90
16229;DHT22;8222;51.462;12.630;2022-12-24T03:53:45;11.80;99.90
16229;DHT22;8222;51.462;12.630;2022-12-24T03:56:10;11.90;99.90
16229;DHT22;8222;51.462;12.630;2022-12-24T03:58:36;11.90;99.90
16229;DHT22;8222;51.462;12.630;2022-12-24T04:01:02;12.00;99.90
16229;DHT22;8222;51.462;12.630;2022-12-24T04:03:27;11.90;99.90
16229;DHT22;8222;51.462;12.630;2022-12-24T04:06:07;11.90;99.90
16229;DHT22;8222;51.462;12.630;2022-12-24T04:08:34;11.70;99.90
16229;DHT22;8222;51.462;12.630;2022-12-24T04:10:59;11.60;99.90
16229;DHT22;8222;51.462;12.630;2022-12-24T04:13:25;11.60;99.90
16229;DHT22;8222;51.462;12.630;2022-12-24T04:16:03;11.60;99.90
16229;DHT22;8222;51.462;12.630;2022-12-24T04:18:29;11.60;99.90
16229;DHT22;8222;51.462;12.630;2022-12-24T04:20:57;11.70;99.90
16229;DHT22;8222;51.462;12.630;2022-12-24T04:23:23;11.70;99.90
16229;DHT22;8222;51.462;12.630;2022-12-24T04:25:49;11.70;99.90
16229;DHT22;8222;51.462;12.630;2022-12-24T04:28:15;12.10;99.90
16229;DHT22;8222;51.462;12.630;2022-12-24T04:30:42;11.70;99.90
16229;DHT22;8222;51.462;12.630;2022-12-24T04:33:09;12.30;99.90
16229;DHT22;8222;51.462;12.630;2022-12-24T04:35:39;11.80;99.90
16229;DHT22;8222;51.462;12.630;2022-12-24T04:38:06;11.90;99.90
16229;DHT22;8222;51.462;12.630;2022-12-24T04:40:32;11.70;99.90
16229;DHT22;8222;51.462;12.630;2022-12-24T04:42:58;11.80;99.90
16229;DHT22;8222;51.462;12.630;2022-12-24T04:45:23;11.90;99.90
16229;DHT22;8222;51.462;12.630;2022-12-24T04:47:49;11.80;99.90
16229;DHT22;8222;51.462;12.630;2022-12-24T04:50:14;11.80;99.90
16229;DHT22;8222;51.462;12.630;2022-12-24T04:52:40;11.70;99.90
16229;DHT22;8222;51.462;12.630;2022-12-24T04:55:06;11.80;99.90
16229;DHT22;8222;51.462;12.630;2022-12-24T04:57:33;11.80;99.90
16229;DHT22;8222;51.462;12.630;2022-12-24T05:00:00;11.80;99.90
16229;DHT22;8222;51.462;12.630;2022-12-24T05:02:26;11.80;99.90
16229;DHT22;8222;51.462;12.630;2022-12-24T05:04:51;11.80;99.90
16229;DHT22;8222;51.462;12.630;2022-12-24T05:07:17;12.20;99.90
16229;DHT22;8222;51.462;12.630;2022-12-24T05:09:43;11.80;99.90
16229;DHT22;8222;51.462;12.630;2022-12-24T05:12:08;11.80;99.90
16229;DHT22;8222;51.462;12.630;2022-12-24T05:14:34;11.70;99.90
16229;DHT22;8222;51.462;12.630;2022-12-24T05:17:00;11.70;99.90
16229;DHT22;8222;51.462;12.630;2022-12-24T05:19:25;11.70;99.90
16229;DHT22;8222;51.462;12.630;2022-12-24T05:21:51;11.80;99.90
16229;DHT22;8222;51.462;12.630;2022-12-24T05:24:37;11.70;99.90
16229;DHT22;8222;51.462;12.630;2022-12-24T05:27:21;11.60;99.90
16229;DHT22;8222;51.462;12.630;2022-12-24T05:29:47;11.60;99.90
16229;DHT22;8222;51.462;12.630;2022-12-24T05:32:12;11.60;99.90
16229;DHT22;8222;51.462;12.630;2022-12-24T05:34:38;11.60;99.90
16229;DHT22;8222;51.462;12.630;2022-12-24T05:37:05;11.80;99.90
16229;DHT22;8222;51.462;12.630;2022-12-24T05:39:31;11.80;99.90
16229;DHT22;8222;51.462;12.630;2022-12-24T05:41:56;11.90;99.90
16229;DHT22;8222;51.462;12.630;2022-12-24T05:44:22;11.80;99.90
16229;DHT22;8222;51.462;12.630;2022-12-24T05:46:48;11.70;99.90
16229;DHT22;8222;51.462;12.630;2022-12-24T05:49:14;11.80;99.90
16229;DHT22;8222;51.462;12.630;2022-12-24T05:51:42;11.90;99.90
16229;DHT22;8222;51.462;12.630;2022-12-24T05:54:08;11.90;99.90
16229;DHT22;8222;51.462;12.630;2022-12-24T05:56:33;11.90;99.90
16229;DHT22;8222;51.462;12.630;2022-12-24T05:58:59;11.90;99.90
16229;DHT22;8222;51.462;12.630;2022-12-24T06:01:25;11.90;99.90
16229;DHT22;8222;51.462;12.630;2022-12-24T06:03:51;11.80;99.90
16229;DHT22;8222;51.462;12.630;2022-12-24T06:06:22;11.90;99.90
16229;DHT22;8222;51.462;12.630;2022-12-24T06:08:49;11.70;99.90
16229;DHT22;8222;51.462;12.630;2022-12-24T06:11:17;11.80;99.90
16229;DHT22;8222;51.462;12.630;2022-12-24T06:13:43;11.80;99.90
16229;DHT22;8222;51.462;12.630;2022-12-24T06:16:13;11.80;99.90
16229;DHT22;8222;51.462;12.630;2022-12-24T06:18:39;11.80;99.90
16229;DHT22;8222;51.462;12.630;2022-12-24T06:21:05;11.80;99.90
16229;DHT22;8222;51.462;12.630;2022-12-24T06:23:34;11.80;99.90
16229;DHT22;8222;51.462;12.630;2022-12-24T06:26:01;11.70;99.90
16229;DHT22;8222;51.462;12.630;2022-12-24T06:28:30;12.10;99.90
16229;DHT22;8222;51.462;12.630;2022-12-24T06:30:56;11.60;99.90
16229;DHT22;8222;51.462;12.630;2022-12-24T06:33:21;11.60;99.90
16229;DHT22;8222;51.462;12.630;2022-12-24T06:35:47;11.70;99.90
16229;DHT22;8222;51.462;12.630;2022-12-24T06:38:14;11.70;99.90
16229;DHT22;8222;51.462;12.630;2022-12-24T06:40:43;11.60;99.90
16229;DHT22;8222;51.462;12.630;2022-12-24T06:43:09;11.60;99.90
16229;DHT22;8222;51.462;12.630;2022-12-24T06:45:37;11.60;99.90
16229;DHT22;8222;51.462;12.630;2022-12-24T06:48:03;11.70;99.90
16229;DHT22;8222;51.462;12.630;2022-12-24T06:50:30;11.50;99.90
16229;DHT22;8222;51.462;12.630;2022-12-24T06:52:56;11.50;99.90
16229;DHT22;8222;51.462;12.630;2022-12-24T06:55:22;11.50;99.90
16229;DHT22;8222;51.462;12.630;2022-12-24T06:57:49;11.70;99.90
16229;DHT22;8222;51.462;12.630;2022-12-24T07:00:15;11.50;99.90
16229;DHT22;8222;51.462;12.630;2022-12-24T07:02:42;11.40;99.90
16229;DHT22;8222;51.462;12.630;2022-12-24T07:05:10;11.50;99.90
16229;DHT22;8222;51.462;12.630;2022-12-24T07:07:37;11.50;99.90
16229;DHT22;8222;51.462;12.630;2022-12-24T07:10:03;11.70;99.90
16229;DHT22;8222;51.462;12.630;2022-12-24T07:12:29;11.60;99.90
16229;DHT22;8222;51.462;12.630;2022-12-24T07:14:54;11.50;99.90
16229;DHT22;8222;51.462;12.630;2022-12-24T07:17:20;11.50;99.90
16229;DHT22;8222;51.462;12.630;2022-12-24T07:19:46;11.50;99.90
16229;DHT22;8222;51.462;12.630;2022-12-24T07:22:14;11.90;99.90
16229;DHT22;8222;51.462;12.630;2022-12-24T07:24:41;11.40;99.90
16229;DHT22;8222;51.462;12.630;2022-12-24T07:27:07;11.40;99.90
16229;DHT22;8222;51.462;12.630;2022-12-24T07:29:33;11.30;99.90
16229;DHT22;8222;51.462;12.630;2022-12-24T07:31:59;11.40;99.90
16229;DHT22;8222;51.462;12.630;2022-12-24T07:34:25;11.40;99.90
16229;DHT22;8222;51.462;12.630;2022-12-24T07:36:50;11.40;99.90
16229;DHT22;8222;51.462;12.630;2022-12-24T07:39:16;11.30;99.90
16229;DHT22;8222;51.462;12.630;2022-12-24T07:41:41;11.30;99.90
16229;DHT22;8222;51.462;12.630;2022-12-24T07:44:13;11.40;99.90
16229;DHT22;8222;51.462;12.630;2022-12-24T07:46:41;11.40;99.90
16229;DHT22;8222;51.462;12.630;2022-12-24T07:49:07;11.80;99.90
16229;DHT22;8222;51.462;12.630;2022-12-24T07:51:33;11.40;99.90
16229;DHT22;8222;51.462;12.630;2022-12-24T07:53:58;11.40;99.90
16229;DHT22;8222;51.462;12.630;2022-12-24T07:56:24;11.20;99.90
16229;DHT22;8222;51.462;12.630;2022-12-24T07:58:50;11.20;99.90
16229;DHT22;8222;51.462;12.630;2022-12-24T08:01:16;11.20;99.90
16229;DHT22;8222;51.462;12.630;2022-12-24T08:03:42;11.60;99.90
16229;DHT22;8222;51.462;12.630;2022-12-24T08:06:09;11.50;99.90
16229;DHT22;8222;51.462;12.630;2022-12-24T08:08:35;11.50;99.90
16229;DHT22;8222;51.462;12.630;2022-12-24T08:11:03;11.50;99.90
16229;DHT22;8222;51.462;12.630;2022-12-24T08:13:31;11.50;99.90
16229;DHT22;8222;51.462;12.630;2022-12-24T08:15:58;11.50;99.90
16229;DHT22;8222;51.462;12.630;2022-12-24T08:18:24;11.50;99.90
16229;DHT22;8222;51.462;12.630;2022-12-24T08:20:50;11.60;99.90
16229;DHT22;8222;51.462;12.630;2022-12-24T08:23:20;11.60;99.90
16229;DHT22;8222;51.462;12.630;2022-12-24T08:25:46;11.70;99.90
16229;DHT22;8222;51.462;12.630;2022-12-24T08:28:16;11.60;99.90
16229;DHT22;8222;51.462;12.630;2022-12-24T08:30:44;11.60;99.90
16229;DHT22;8222;51.462;12.630;2022-12-24T08:33:10;11.60;99.90
16229;DHT22;8222;51.462;12.630;2022-12-24T08:35:36;11.60;99.90
16229;DHT22;8222;51.462;12.630;2022-12-24T08:38:02;11.60;99.90
16229;DHT22;8222;51.462;12.630;2022-12-24T08:40:27;11.60;99.90
16229;DHT22;8222;51.462;12.630;2022-12-24T08:42:53;11.60;99.90
16229;DHT22;8222;51.462;12.630;2022-12-24T08:45:21;11.60;99.90
16229;DHT22;8222;51.462;12.630;2022-12-24T08:47:47;11.60;99.90
16229;DHT22;8222;51.462;12.630;2022-12-24T08:50:13;11.70;99.90
16229;DHT22;8222;51.462;12.630;2022-12-24T08:52:39;12.20;99.90
16229;DHT22;8222;51.462;12.630;2022-12-24T08:55:05;11.70;99.90
16229;DHT22;8222;51.462;12.630;2022-12-24T08:57:33;11.70;99.90
16229;DHT22;8222;51.462;12.630;2022-12-24T09:00:00;11.80;99.90
16229;DHT22;8222;51.462;12.630;2022-12-24T09:02:26;11.70;99.90
16229;DHT22;8222;51.462;12.630;2022-12-24T09:04:52;11.60;99.90
16229;DHT22;8222;51.462;12.630;2022-12-24T09:07:17;11.60;99.90
16229;DHT22;8222;51.462;12.630;2022-12-24T09:09:44;11.70;99.90
16229;DHT22;8222;51.462;12.630;2022-12-24T09:12:10;11.80;99.90
16229;DHT22;8222;51.462;12.630;2022-12-24T09:14:36;11.70;99.90
16229;DHT22;8222;51.462;12.630;2022-12-24T09:17:01;11.80;99.90
16229;DHT22;8222;51.462;12.630;2022-12-24T09:19:27;11.90;99.90
16229;DHT22;8222;51.462;12.630;2022-12-24T09:21:53;12.10;99.90
16229;DHT22;8222;51.462;12.630;2022-12-24T09:24:18;12.10;99.90
16229;DHT22;8222;51.462;12.630;2022-12-24T09:26:44;12.20;99.90
16229;DHT22;8222;51.462;12.630;2022-12-24T09:29:14;12.30;99.90
16229;DHT22;8222;51.462;12.630;2022-12-24T09:31:42;12.40;99.90
16229;DHT22;8222;51.462;12.630;2022-12-24T09:34:07;12.70;99.90
16229;DHT22;8222;51.462;12.630;2022-12-24T09:36:34;12.60;99.90
16229;DHT22;8222;51.462;12.630;2022-12-24T09:39:00;12.60;99.90
16229;DHT22;8222;51.462;12.630;2022-12-24T09:47:07;12.50;99.90
16229;DHT22;8222;51.462;12.630;2022-12-24T09:49:44;12.60;99.90
16229;DHT22;8222;51.462;12.630;2022-12-24T09:52:20;12.60;99.90
16229;DHT22;8222;51.462;12.630;2022-12-24T09:54:55;12.50;99.90
16229;DHT22;8222;51.462;12.630;2022-12-24T09:57:29;12.40;99.90
16229;DHT22;8222;51.462;12.630;2022-12-24T09:59:56;12.40;99.90
16229;DHT22;8222;51.462;12.630;2022-12-24T10:02:22;12.50;99.90
16229;DHT22;8222;51.462;12.630;2022-12-24T10:04:48;12.70;99.90
16229;DHT22;8222;51.462;12.630;2022-12-24T10:10:16;12.80;99.90
16229;DHT22;8222;51.462;12.630;2022-12-24T10:13:17;13.00;99.90
16229;DHT22;8222;51.462;12.630;2022-12-24T10:16:02;13.10;99.90
16229;DHT22;8222;51.462;12.630;2022-12-24T10:18:37;13.10;99.90
16229;DHT22;8222;51.462;12.630;2022-12-24T10:21:15;13.10;99.90
16229;DHT22;8222;51.462;12.630;2022-12-24T10:26:32;13.10;99.90
16229;DHT22;8222;51.462;12.630;2022-12-24T10:29:13;13.10;99.90
16229;DHT22;8222;51.462;12.630;2022-12-24T10:31:53;13.10;99.90
16229;DHT22;8222;51.462;12.630;2022-12-24T10:34:28;13.30;99.90
16229;DHT22;8222;51.462;12.630;2022-12-24T10:36:55;13.20;99.90
16229;DHT22;8222;51.462;12.630;2022-12-24T10:39:23;13.20;99.90
16229;DHT22;8222;51.462;12.630;2022-12-24T10:41:52;13.30;99.90
16229;DHT22;8222;51.462;12.630;2022-12-24T10:44:21;13.50;99.90
16229;DHT22;8222;51.462;12.630;2022-12-24T10:46:50;13.40;99.90
16229;DHT22;8222;51.462;12.630;2022-12-24T10:49:19;13.60;99.90
16229;DHT22;8222;51.462;12.630;2022-12-24T10:51:53;13.60;99.90
16229;DHT22;8222;51.462;12.630;2022-12-24T10:54:25;13.70;99.90
16229;DHT22;8222;51.462;12.630;2022-12-24T10:56:56;13.70;99.90
16229;DHT22;8222;51.462;12.630;2022-12-24T10:59:29;13.60;99.90
16229;DHT22;8222;51.462;12.630;2022-12-24T11:01:57;13.70;99.90
16229;DHT22;8222;51.462;12.630;2022-12-24T11:04:26;13.40;99.90
16229;DHT22;8222;51.462;12.630;2022-12-24T11:07:09;13.50;99.90
16229;DHT22;8222;51.462;12.630;2022-12-24T11:10:03;13.50;99.90
16229;DHT22;8222;51.462;12.630;2022-12-24T11:12:45;13.40;99.90
16229;DHT22;8222;51.462;12.630;2022-12-24T11:17:51;13.40;99.90
16229;DHT22;8222;51.462;12.630;2022-12-24T11:20:18;13.50;99.90
16229;DHT22;8222;51.462;12.630;2022-12-24T11:22:48;13.40;99.90
16229;DHT22;8222;51.462;12.630;2022-12-24T11:25:23;13.50;99.90
16229;DHT22;8222;51.462;12.630;2022-12-24T11:27:52;13.50;99.90
16229;DHT22;8222;51.462;12.630;2022-12-24T11:33:16;13.30;99.90
16229;DHT22;8222;51.462;12.630;2022-12-24T11:35:50;13.40;99.90
16229;DHT22;8222;51.462;12.630;2022-12-24T11:38:20;13.40;99.90
16229;DHT22;8222;51.462;12.630;2022-12-24T11:41:09;13.20;99.90
16229;DHT22;8222;51.462;12.630;2022-12-24T11:43:42;13.20;99.90
16229;DHT22;8222;51.462;12.630;2022-12-24T11:46:19;13.20;99.90
16229;DHT22;8222;51.462;12.630;2022-12-24T11:48:46;13.10;99.90
16229;DHT22;8222;51.462;12.630;2022-12-24T11:51:22;13.20;99.90
16229;DHT22;8222;51.462;12.630;2022-12-24T11:54:15;13.10;99.90
16229;DHT22;8222;51.462;12.630;2022-12-24T11:56:47;13.20;99.90
16229;DHT22;8222;51.462;12.630;2022-12-24T11:59:23;13.20;99.90
16229;DHT22;8222;51.462;12.630;2022-12-24T12:05:23;13.20;99.90
16229;DHT22;8222;51.462;12.630;2022-12-24T12:07:54;13.00;99.90
16229;DHT22;8222;51.462;12.630;2022-12-24T12:10:27;13.10;99.90
16229;DHT22;8222;51.462;12.630;2022-12-24T12:13:09;12.90;99.90
16229;DHT22;8222;51.462;12.630;2022-12-24T12:18:46;12.90;99.90
16229;DHT22;8222;51.462;12.630;2022-12-24T12:21:18;12.90;99.90
16229;DHT22;8222;51.462;12.630;2022-12-24T12:23:56;12.90;99.90
16229;DHT22;8222;51.462;12.630;2022-12-24T12:26:27;13.10;99.90
16229;DHT22;8222;51.462;12.630;2022-12-24T12:28:58;13.10;99.90
16229;DHT22;8222;51.462;12.630;2022-12-24T12:31:48;13.10;99.90
16229;DHT22;8222;51.462;12.630;2022-12-24T12:34:41;13.00;99.90
16229;DHT22;8222;51.462;12.630;2022-12-24T12:37:15;12.80;99.90
16229;DHT22;8222;51.462;12.630;2022-12-24T12:39:42;12.70;99.90
16229;DHT22;8222;51.462;12.630;2022-12-24T12:42:16;12.60;99.90
16229;DHT22;8222;51.462;12.630;2022-12-24T12:44:56;12.50;99.90
16229;DHT22;8222;51.462;12.630;2022-12-24T12:50:42;12.70;99.90
16229;DHT22;8222;51.462;12.630;2022-12-24T12:58:37;12.80;99.90
16229;DHT22;8222;51.462;12.630;2022-12-24T13:01:12;12.80;99.90
16229;DHT22;8222;51.462;12.630;2022-12-24T13:04:05;12.80;99.90
16229;DHT22;8222;51.462;12.630;2022-12-24T13:20:47;13.10;99.90
16229;DHT22;8222;51.462;12.630;2022-12-24T13:23:17;13.10;99.90
16229;DHT22;8222;51.462;12.630;2022-12-24T13:25:46;13.10;99.90
16229;DHT22;8222;51.462;12.630;2022-12-24T13:30:48;13.10;99.90
16229;DHT22;8222;51.462;12.630;2022-12-24T13:36:12;13.00;99.90
16229;DHT22;8222;51.462;12.630;2022-12-24T13:46:58;13.00;99.90
16229;DHT22;8222;51.462;12.630;2022-12-24T13:54:31;12.60;99.90
16229;DHT22;8222;51.462;12.630;2022-12-24T13:57:02;12.50;99.90
16229;DHT22;8222;51.462;12.630;2022-12-24T14:00:00;12.50;99.90
16229;DHT22;8222;51.462;12.630;2022-12-24T14:02:27;12.50;99.90
16229;DHT22;8222;51.462;12.630;2022-12-24T14:04:59;12.40;99.90
16229;DHT22;8222;51.462;12.630;2022-12-24T14:07:26;11.90;99.90
16229;DHT22;8222;51.462;12.630;2022-12-24T14:09:52;11.60;99.90
16229;DHT22;8222;51.462;12.630;2022-12-24T14:12:46;11.00;99.90
16229;DHT22;8222;51.462;12.630;2022-12-24T14:15:45;10.80;99.90
16229;DHT22;8222;51.462;12.630;2022-12-24T14:18:17;10.50;99.90
16229;DHT22;8222;51.462;12.630;2022-12-24T14:20:43;10.50;99.90
16229;DHT22;8222;51.462;12.630;2022-12-24T14:23:39;10.60;99.90
16229;DHT22;8222;51.462;12.630;2022-12-24T14:26:12;10.50;99.90
16229;DHT22;8222;51.462;12.630;2022-12-24T14:28:42;10.80;99.90
16229;DHT22;8222;51.462;12.630;2022-12-24T14:31:16;10.40;99.90
16229;DHT22;8222;51.462;12.630;2022-12-24T14:33:41;10.80;99.90
16229;DHT22;8222;51.462;12.630;2022-12-24T14:36:08;10.50;99.90
16229;DHT22;8222;51.462;12.630;2022-12-24T14:38:34;10.40;99.90
16229;DHT22;8222;51.462;12.630;2022-12-24T14:41:28;10.40;99.90
16229;DHT22;8222;51.462;12.630;2022-12-24T14:46:44;10.60;99.90
16229;DHT22;8222;51.462;12.630;2022-12-24T14:59:58;10.60;99.90
16229;DHT22;8222;51.462;12.630;2022-12-24T15:02:29;10.70;99.90
16229;DHT22;8222;51.462;12.630;2022-12-24T15:07:37;10.60;99.90
16229;DHT22;8222;51.462;12.630;2022-12-24T15:10:06;10.70;99.90
16229;DHT22;8222;51.462;12.630;2022-12-24T15:12:33;10.60;99.90
16229;DHT22;8222;51.462;12.630;2022-12-24T15:14:59;10.90;99.90
16229;DHT22;8222;51.462;12.630;2022-12-24T15:17:25;10.50;99.90
16229;DHT22;8222;51.462;12.630;2022-12-24T15:19:52;10.60;99.90
16229;DHT22;8222;51.462;12.630;2022-12-24T15:22:28;10.40;99.90
16229;DHT22;8222;51.462;12.630;2022-12-24T15:24:59;10.40;99.90
16229;DHT22;8222;51.462;12.630;2022-12-24T15:27:26;10.40;99.90
16229;DHT22;8222;51.462;12.630;2022-12-24T15:29:55;10.40;99.90
16229;DHT22;8222;51.462;12.630;2022-12-24T15:32:22;10.30;99.90
16229;DHT22;8222;51.462;12.630;2022-12-24T15:34:50;10.10;99.90
16229;DHT22;8222;51.462;12.630;2022-12-24T15:37:28;10.30;99.90
16229;DHT22;8222;51.462;12.630;2022-12-24T15:40:09;10.30;99.90
16229;DHT22;8222;51.462;12.630;2022-12-24T15:42:35;10.30;99.90
16229;DHT22;8222;51.462;12.630;2022-12-24T15:45:26;10.30;99.90
16229;DHT22;8222;51.462;12.630;2022-12-24T15:48:05;10.20;99.90
16229;DHT22;8222;51.462;12.630;2022-12-24T15:50:34;10.30;99.90
16229;DHT22;8222;51.462;12.630;2022-12-24T15:53:15;10.30;99.90
16229;DHT22;8222;51.462;12.630;2022-12-24T15:55:46;10.20;99.90
16229;DHT22;8222;51.462;12.630;2022-12-24T15:58:26;10.20;99.90
16229;DHT22;8222;51.462;12.630;2022-12-24T16:03:40;10.00;99.90
16229;DHT22;8222;51.462;12.630;2022-12-24T16:06:19;10.00;99.90
16229;DHT22;8222;51.462;12.630;2022-12-24T16:08:45;9.80;99.90
16229;DHT22;8222;51.462;12.630;2022-12-24T16:11:19;10.30;99.90
16229;DHT22;8222;51.462;12.630;2022-12-24T16:13:59;9.70;99.90
16229;DHT22;8222;51.462;12.630;2022-12-24T16:16:33;9.70;99.90
16229;DHT22;8222;51.462;12.630;2022-12-24T16:18:59;9.70;99.90
16229;DHT22;8222;51.462;12.630;2022-12-24T16:21:34;9.60;99.90
16229;DHT22;8222;51.462;12.630;2022-12-24T16:24:24;9.60;99.90
16229;DHT22;8222;51.462;12.630;2022-12-24T16:26:54;9.30;99.90
16229;DHT22;8222;51.462;12.630;2022-12-24T16:29:20;9.30;99.90
16229;DHT22;8222;51.462;12.630;2022-12-24T16:31:53;9.30;99.90
16229;DHT22;8222;51.462;12.630;2022-12-24T16:34:25;9.40;99.90
16229;DHT22;8222;51.462;12.630;2022-12-24T16:36:51;9.20;99.90
16229;DHT22;8222;51.462;12.630;2022-12-24T16:39:22;9.30;99.90
16229;DHT22;8222;51.462;12.630;2022-12-24T16:41:52;9.30;99.90
16229;DHT22;8222;51.462;12.630;2022-12-24T16:44:37;9.30;99.90
16229;DHT22;8222;51.462;12.630;2022-12-24T16:47:08;9.20;99.90
16229;DHT22;8222;51.462;12.630;2022-12-24T16:49:36;9.10;99.90
16229;DHT22;8222;51.462;12.630;2022-12-24T16:52:04;9.10;99.90
16229;DHT22;8222;51.462;12.630;2022-12-24T16:54:30;9.00;99.90
16229;DHT22;8222;51.462;12.630;2022-12-24T16:56:55;8.90;99.90
16229;DHT22;8222;51.462;12.630;2022-12-24T16:59:22;8.80;99.90
16229;DHT22;8222;51.462;12.630;2022-12-24T17:01:48;8.80;99.90
16229;DHT22;8222;51.462;12.630;2022-12-24T17:04:16;8.90;99.90
16229;DHT22;8222;51.462;12.630;2022-12-24T17:06:42;9.10;99.90
16229;DHT22;8222;51.462;12.630;2022-12-24T17:09:10;8.70;99.90
16229;DHT22;8222;51.462;12.630;2022-12-24T17:11:36;8.70;99.90
16229;DHT22;8222;51.462;12.630;2022-12-24T17:14:03;8.70;99.90
16229;DHT22;8222;51.462;12.630;2022-12-24T17:16:31;8.50;99.90
16229;DHT22;8222;51.462;12.630;2022-12-24T17:18:56;8.50;99.90
16229;DHT22;8222;51.462;12.630;2022-12-24T17:21:22;8.50;99.90
16229;DHT22;8222;51.462;12.630;2022-12-24T17:23:48;8.50;99.90
16229;DHT22;8222;51.462;12.630;2022-12-24T17:26:14;8.60;99.90
16229;DHT22;8222;51.462;12.630;2022-12-24T17:28:41;8.50;99.90
16229;DHT22;8222;51.462;12.630;2022-12-24T17:31:08;8.60;99.90
16229;DHT22;8222;51.462;12.630;2022-12-24T17:33:34;8.70;99.90
16229;DHT22;8222;51.462;12.630;2022-12-24T17:36:00;8.80;99.90